»·PEaware :: DCM206 KTEX-KEGE

DCM206 :: KTEX-KEGE

FLIGHT INFORMATION

Flight Status: Arrived
Operator:
DotCom
More flights by this operator :: More flights under this callsign
Pilot: Nick L. (7253)
Aircraft: BOEING 737-800
(B738)
More flights by this aircraft type
Origin: KTEX Telluride Regl
United States
Destination: KEGE Eagle Co Regl
United States
More flights between these airports :: More routes between these airports
Route: ETL V68 MTJ SXW JESIE RLG
File this flight plan on PilotEdge
Remarks: RMK / SIMBRIEF
Altitude:
(Current/Filed)
25,000ft
Speed:
(Current/Filed)
432kts
Departed: 17-Feb-21 01:11 PM
Arrived: 17-Feb-21 01:49 PM
Distance/Time
Traveled:
111nm/0:37
Distance/Time
To Go:
Arrived

Flight Plot

Page will automatically refresh every two minutes.

Flight plan parsing failed; only flown route is shown


Map Options




Map Legend


Flown Route
Filed Route
Departure Airport
Arrival Airport
Navaid (VOR, NDB)
Fix

Horizontal Profiles

Position Reports

Time Latitude Longitude Heading Altitude Ground
Speed
17-Feb-21 12:41 37.953789 -107.901138 195 9076ft 0kts
17-Feb-21 12:42 37.953789 -107.901138 195 9076ft 0kts
17-Feb-21 12:43 37.953789 -107.901138 195 9076ft 0kts
17-Feb-21 12:44 37.953789 -107.901138 195 9076ft 0kts
17-Feb-21 12:45 37.953789 -107.901138 195 9076ft 0kts
17-Feb-21 12:46 37.953789 -107.901138 195 9076ft 0kts
17-Feb-21 12:47 37.953789 -107.901138 195 9076ft 0kts
17-Feb-21 12:48 37.953789 -107.901138 195 9076ft 0kts
17-Feb-21 12:49 37.953789 -107.901138 195 9076ft 0kts
17-Feb-21 12:50 37.953789 -107.901138 195 9076ft 0kts
17-Feb-21 12:51 37.953789 -107.901138 195 9076ft 0kts
17-Feb-21 12:52 37.953789 -107.901138 195 9076ft 0kts
17-Feb-21 12:53 37.953789 -107.901138 195 9076ft 0kts
17-Feb-21 12:54 37.953789 -107.901138 195 9076ft 0kts
17-Feb-21 12:55 37.953789 -107.901138 195 9076ft 0kts
17-Feb-21 12:56 37.953788 -107.901138 195 9076ft 0kts
17-Feb-21 12:57 37.953788 -107.901138 195 9076ft 0kts
17-Feb-21 12:58 37.953788 -107.901138 195 9076ft 0kts
17-Feb-21 12:59 37.953364 -107.901021 128 9076ft 5kts
17-Feb-21 13:00 37.952505 -107.897137 104 9076ft 8kts
17-Feb-21 13:01 37.952419 -107.896839 126 9076ft 0kts
17-Feb-21 13:02 37.952419 -107.896839 126 9076ft 0kts
17-Feb-21 13:03 37.952419 -107.896839 126 9076ft 0kts
17-Feb-21 13:04 37.952419 -107.896839 126 9076ft 0kts
17-Feb-21 13:05 37.952419 -107.896839 126 9076ft 0kts
17-Feb-21 13:06 37.952419 -107.896839 126 9076ft 0kts
17-Feb-21 13:07 37.952419 -107.896839 126 9076ft 0kts
17-Feb-21 13:08 37.952419 -107.896839 126 9076ft 0kts
17-Feb-21 13:09 37.951491 -107.897677 283 9076ft 6kts
17-Feb-21 13:10 37.959271 -107.931866 289 9862ft 158kts
17-Feb-21 13:11 37.973633 -107.993092 287 11758ft 197kts
17-Feb-21 13:12 37.992934 -108.069044 288 14315ft 238kts
17-Feb-21 13:13 38.014746 -108.154302 288 16331ft 295kts
17-Feb-21 13:14 38.060464 -108.241076 343 19063ft 319kts
17-Feb-21 13:15 38.149074 -108.196493 40 20052ft 400kts
17-Feb-21 13:16 38.246625 -108.104438 30 22190ft 422kts
17-Feb-21 13:17 38.365582 -108.070883 349 24547ft 423kts
17-Feb-21 13:18 38.480636 -108.043901 33 24928ft 454kts
17-Feb-21 13:19 38.560044 -107.904681 50 24924ft 475kts
17-Feb-21 13:20 38.667925 -107.782698 33 24923ft 477kts
17-Feb-21 13:21 38.785408 -107.679956 30 24924ft 476kts
17-Feb-21 13:22 38.904401 -107.582573 29 24923ft 475kts
17-Feb-21 13:23 39.018286 -107.490427 29 24906ft 464kts
17-Feb-21 13:24 39.127303 -107.402293 29 24868ft 463kts
17-Feb-21 13:25 39.236521 -107.313768 30 24834ft 463kts
17-Feb-21 13:26 39.345337 -107.225263 30 24817ft 464kts
17-Feb-21 13:27 39.454419 -107.136238 30 24849ft 463kts
17-Feb-21 13:28 39.563568 -107.048102 27 24880ft 463kts
17-Feb-21 13:29 39.681150 -106.980978 15 24881ft 465kts
17-Feb-21 13:30 39.806341 -106.940049 11 24881ft 467kts
17-Feb-21 13:31 39.922129 -106.882068 28 24881ft 415kts
17-Feb-21 13:32 40.021186 -106.803908 28 24843ft 416kts
17-Feb-21 13:33 40.118090 -106.728165 28 23909ft 409kts
17-Feb-21 13:35 40.213338 -106.653854 28 22914ft 402kts
17-Feb-21 13:36 40.258026 -106.538504 111 21561ft 382kts
17-Feb-21 13:37 40.174697 -106.481492 178 20428ft 341kts
17-Feb-21 13:38 40.082878 -106.469090 167 18793ft 334kts
17-Feb-21 13:39 39.997166 -106.449980 187 17355ft 324kts
17-Feb-21 13:40 39.911051 -106.481152 199 15840ft 315kts
17-Feb-21 13:41 39.825935 -106.517076 199 14283ft 308kts
17-Feb-21 13:42 39.748665 -106.549456 199 13993ft 261kts
17-Feb-21 13:43 39.691317 -106.593963 245 12789ft 230kts
17-Feb-21 13:44 39.678509 -106.667105 260 11243ft 177kts
17-Feb-21 13:45 39.670043 -106.724890 260 10070ft 161kts
17-Feb-21 13:46 39.659195 -106.780442 253 9031ft 158kts
17-Feb-21 13:47 39.651641 -106.836018 263 7919ft 155kts
17-Feb-21 13:48 39.645481 -106.891209 261 6807ft 153kts
17-Feb-21 13:49 39.641360 -106.928955 261 6553ft 27kts
17-Feb-21 13:50 39.640198 -106.929237 81 6553ft 16kts
17-Feb-21 13:51 39.641107 -106.920920 81 6553ft 21kts
17-Feb-21 13:52 39.640743 -106.915414 172 6553ft 11kts

Navigation Log

Ident Type
Flight plan parsing failed, navigation log unavailable